createdAt,value
2018-07-08T00:00:16.727Z,21.90
2018-07-08T00:01:20.813Z,21.80
2018-07-08T00:02:25.009Z,21.80
2018-07-08T00:03:29.161Z,21.80
2018-07-08T00:04:33.263Z,21.80
2018-07-08T00:05:37.349Z,21.80
2018-07-08T00:06:41.520Z,21.80
2018-07-08T00:07:45.689Z,21.80
2018-07-08T00:08:49.834Z,21.80
2018-07-08T00:09:54.072Z,21.70
2018-07-08T00:10:59.257Z,21.70
2018-07-08T00:12:03.436Z,21.70
2018-07-08T00:13:08.299Z,21.70
2018-07-08T00:14:12.500Z,21.70
2018-07-08T00:15:16.683Z,21.70
2018-07-08T00:16:20.801Z,21.70
2018-07-08T00:17:25.029Z,21.70
2018-07-08T00:18:29.314Z,21.70
2018-07-08T00:19:33.426Z,21.70
2018-07-08T00:20:37.582Z,21.60
2018-07-08T00:21:41.719Z,21.60
2018-07-08T00:22:45.903Z,21.60
2018-07-08T00:23:50.055Z,21.70
2018-07-08T00:24:54.170Z,21.60
2018-07-08T00:25:58.278Z,21.60
2018-07-08T00:27:02.392Z,21.60
2018-07-08T00:28:06.616Z,21.60
2018-07-08T00:29:10.744Z,21.60
2018-07-08T00:30:14.909Z,21.60
2018-07-08T00:31:19.069Z,21.60
2018-07-08T00:32:23.383Z,21.60
2018-07-08T00:33:27.599Z,21.50
2018-07-08T00:34:31.714Z,21.50
2018-07-08T00:35:35.908Z,21.50
2018-07-08T00:36:39.989Z,21.50
2018-07-08T00:37:44.145Z,21.50
2018-07-08T00:38:48.278Z,21.50
2018-07-08T00:39:52.472Z,21.50
2018-07-08T00:40:56.585Z,21.40
2018-07-08T00:42:00.632Z,21.40
2018-07-08T00:43:04.792Z,21.50
2018-07-08T00:44:09.045Z,21.40
2018-07-08T00:45:13.277Z,21.40
2018-07-08T00:46:17.389Z,21.40
2018-07-08T00:47:21.495Z,21.40
2018-07-08T00:48:25.617Z,21.30
2018-07-08T00:49:29.826Z,21.30
2018-07-08T00:50:34.032Z,21.30
2018-07-08T00:51:38.135Z,21.30
2018-07-08T00:52:42.309Z,21.30
2018-07-08T00:53:46.455Z,21.30
2018-07-08T00:54:50.541Z,21.20
2018-07-08T00:55:54.707Z,21.20
2018-07-08T00:56:58.819Z,21.20
2018-07-08T00:58:02.947Z,21.20
2018-07-08T00:59:07.034Z,21.20
2018-07-08T01:00:31.713Z,21.20
2018-07-08T01:01:36.019Z,21.10
2018-07-08T01:03:43.789Z,21.10
2018-07-08T01:04:47.943Z,21.10
2018-07-08T01:05:52.070Z,21.10
2018-07-08T01:06:56.225Z,21.10
2018-07-08T01:08:01.087Z,21.10
2018-07-08T01:09:06.221Z,21.10
2018-07-08T01:10:10.387Z,21.00
2018-07-08T01:11:14.523Z,21.10
2018-07-08T01:12:18.707Z,21.00
2018-07-08T01:13:22.821Z,21.00
2018-07-08T01:14:26.957Z,21.00
2018-07-08T01:15:31.161Z,21.00
2018-07-08T01:16:35.249Z,21.00
2018-07-08T01:17:39.436Z,21.00
2018-07-08T01:18:43.645Z,21.00
2018-07-08T01:19:47.772Z,21.00
2018-07-08T01:20:51.974Z,21.00
2018-07-08T01:21:56.094Z,20.90
2018-07-08T01:23:00.142Z,21.00
2018-07-08T01:24:04.311Z,20.90
2018-07-08T01:25:15.669Z,20.90
2018-07-08T01:27:23.525Z,20.90
2018-07-08T01:28:27.720Z,20.90
2018-07-08T01:29:31.875Z,20.90
2018-07-08T01:30:36.055Z,20.90
2018-07-08T01:31:40.197Z,20.80
2018-07-08T01:32:44.358Z,20.90
2018-07-08T01:33:48.489Z,20.90
2018-07-08T01:34:52.653Z,20.80
2018-07-08T01:35:56.825Z,20.80
2018-07-08T01:37:00.940Z,20.80
2018-07-08T01:38:05.078Z,20.80
2018-07-08T01:39:09.243Z,20.80
2018-07-08T01:40:13.386Z,20.80
2018-07-08T01:41:17.459Z,20.80
2018-07-08T01:42:21.577Z,20.80
2018-07-08T01:43:25.671Z,20.80
2018-07-08T01:44:29.803Z,20.80
2018-07-08T01:45:33.896Z,20.80
2018-07-08T01:46:38.110Z,20.80
2018-07-08T01:47:42.248Z,20.80
2018-07-08T01:48:46.388Z,20.80
2018-07-08T01:49:50.887Z,20.80
2018-07-08T01:50:54.979Z,20.80
2018-07-08T01:51:59.183Z,20.80
2018-07-08T01:53:03.348Z,20.80
2018-07-08T01:54:08.207Z,20.80
2018-07-08T01:55:12.375Z,20.80
2018-07-08T01:56:16.559Z,20.80
2018-07-08T01:57:20.707Z,20.70
2018-07-08T01:58:24.874Z,20.70
2018-07-08T01:59:29.091Z,20.70
2018-07-08T02:00:33.879Z,20.80
2018-07-08T02:01:38.049Z,20.70
2018-07-08T02:02:42.142Z,20.70
2018-07-08T02:03:53.341Z,20.70
2018-07-08T02:04:57.376Z,20.70
2018-07-08T02:06:01.622Z,20.70
2018-07-08T02:07:05.917Z,20.70
2018-07-08T02:08:10.000Z,20.70
2018-07-08T02:09:14.444Z,20.70
2018-07-08T02:10:18.538Z,20.70
2018-07-08T02:11:22.861Z,20.70
2018-07-08T02:12:26.994Z,20.70
2018-07-08T02:13:31.073Z,20.60
2018-07-08T02:14:35.436Z,20.60
2018-07-08T02:15:39.545Z,20.60
2018-07-08T02:16:43.715Z,20.60
2018-07-08T02:17:47.887Z,20.60
2018-07-08T02:18:51.962Z,20.60
2018-07-08T02:19:56.059Z,20.60
2018-07-08T02:21:00.248Z,20.60
2018-07-08T02:22:04.498Z,20.60
2018-07-08T02:23:08.637Z,20.60
2018-07-08T02:24:12.994Z,20.50
2018-07-08T02:25:17.193Z,20.60
2018-07-08T02:26:21.328Z,20.60
2018-07-08T02:27:25.505Z,20.50
2018-07-08T02:28:29.640Z,20.50
2018-07-08T02:29:34.443Z,20.50
2018-07-08T02:30:38.599Z,20.50
2018-07-08T02:31:42.898Z,20.50
2018-07-08T02:32:47.075Z,20.50
2018-07-08T02:33:51.214Z,20.50
2018-07-08T02:34:55.414Z,20.50
2018-07-08T02:35:59.585Z,20.50
2018-07-08T02:37:04.001Z,20.50
2018-07-08T02:39:11.753Z,20.50
2018-07-08T02:40:15.863Z,20.50
2018-07-08T02:41:20.078Z,20.50
2018-07-08T02:42:24.175Z,20.50
2018-07-08T02:43:28.402Z,20.50
2018-07-08T02:44:32.633Z,20.50
2018-07-08T02:45:36.846Z,20.50
2018-07-08T02:46:41.110Z,20.50
2018-07-08T02:47:45.765Z,20.50
2018-07-08T02:48:50.098Z,20.40
2018-07-08T02:49:54.218Z,20.50
2018-07-08T02:50:58.363Z,20.50
2018-07-08T02:52:02.549Z,20.40
2018-07-08T02:53:06.855Z,20.40
2018-07-08T02:54:10.926Z,20.40
2018-07-08T02:55:15.067Z,20.40
2018-07-08T02:56:19.183Z,20.40
2018-07-08T02:57:23.332Z,20.40
2018-07-08T02:58:27.421Z,20.40
2018-07-08T02:59:31.600Z,20.30
2018-07-08T03:00:35.705Z,20.40
2018-07-08T03:01:39.809Z,20.30
2018-07-08T03:02:43.986Z,20.30
2018-07-08T03:03:48.259Z,20.30
2018-07-08T03:04:52.358Z,20.30
2018-07-08T03:05:56.475Z,20.30
2018-07-08T03:07:00.521Z,20.30
2018-07-08T03:08:04.954Z,20.30
2018-07-08T03:09:10.183Z,20.30
2018-07-08T03:10:14.336Z,20.30
2018-07-08T03:11:19.014Z,20.20
2018-07-08T03:12:23.121Z,20.20
2018-07-08T03:13:27.201Z,20.20
2018-07-08T03:14:31.404Z,20.20
2018-07-08T03:15:35.509Z,20.20
2018-07-08T03:16:39.597Z,20.10
2018-07-08T03:18:47.542Z,20.10
2018-07-08T03:19:51.645Z,20.10
2018-07-08T03:20:55.819Z,20.10
2018-07-08T03:21:59.914Z,20.10
2018-07-08T03:23:04.093Z,20.10
2018-07-08T03:24:08.283Z,20.10
2018-07-08T03:25:12.433Z,20.10
2018-07-08T03:26:16.619Z,20.00
2018-07-08T03:27:20.715Z,20.00
2018-07-08T03:28:24.787Z,20.00
2018-07-08T03:29:28.948Z,20.00
2018-07-08T03:30:33.085Z,20.00
2018-07-08T03:31:37.315Z,20.00
2018-07-08T03:32:41.459Z,20.00
2018-07-08T03:33:45.657Z,19.90
2018-07-08T03:34:49.757Z,19.90
2018-07-08T03:35:53.917Z,19.90
2018-07-08T03:36:58.116Z,19.90
2018-07-08T03:38:02.390Z,19.90
2018-07-08T03:40:10.712Z,19.90
2018-07-08T03:41:14.855Z,19.90
2018-07-08T03:42:18.965Z,19.80
2018-07-08T03:43:23.102Z,19.80
2018-07-08T03:44:27.238Z,19.80
2018-07-08T03:45:31.467Z,19.80
2018-07-08T03:46:36.096Z,19.80
2018-07-08T03:47:40.155Z,19.80
2018-07-08T03:48:44.307Z,19.80
2018-07-08T03:49:48.464Z,19.80
2018-07-08T03:50:52.684Z,19.70
2018-07-08T03:51:56.763Z,19.70
2018-07-08T03:53:00.880Z,19.70
2018-07-08T03:54:10.323Z,19.70
2018-07-08T03:55:14.448Z,19.70
2018-07-08T03:56:18.537Z,19.70
2018-07-08T03:57:22.660Z,19.70
2018-07-08T03:58:26.738Z,19.70
2018-07-08T03:59:30.823Z,19.70
2018-07-08T04:00:35.007Z,19.70
2018-07-08T04:01:39.166Z,19.70
2018-07-08T04:02:43.326Z,19.70
2018-07-08T04:03:47.388Z,19.70
2018-07-08T04:04:51.447Z,19.70
2018-07-08T04:05:55.547Z,19.70
2018-07-08T04:06:59.657Z,19.70
2018-07-08T04:08:03.815Z,19.70
2018-07-08T04:09:08.159Z,19.80
2018-07-08T04:10:12.223Z,19.80
2018-07-08T04:11:16.372Z,19.80
2018-07-08T04:12:20.473Z,19.80
2018-07-08T04:13:24.639Z,19.80
2018-07-08T04:14:28.708Z,19.80
2018-07-08T04:15:32.867Z,19.80
2018-07-08T04:16:36.910Z,19.80
2018-07-08T04:17:41.048Z,19.80
2018-07-08T04:18:45.167Z,19.90
2018-07-08T04:19:49.289Z,19.80
2018-07-08T04:20:53.346Z,19.90
2018-07-08T04:21:57.587Z,19.90
2018-07-08T04:23:01.807Z,19.90
2018-07-08T04:24:05.899Z,19.90
2018-07-08T04:25:10.000Z,19.90
2018-07-08T04:26:14.100Z,19.90
2018-07-08T04:27:18.286Z,19.90
2018-07-08T04:28:22.424Z,19.90
2018-07-08T04:29:26.555Z,20.00
2018-07-08T04:30:31.380Z,20.00
2018-07-08T04:31:35.503Z,20.00
2018-07-08T04:32:39.647Z,20.00
2018-07-08T04:33:43.788Z,20.00
2018-07-08T04:34:47.822Z,20.00
2018-07-08T04:35:51.955Z,20.00
2018-07-08T04:36:56.082Z,20.00
2018-07-08T04:38:00.232Z,20.10
2018-07-08T04:39:05.906Z,20.10
2018-07-08T04:40:10.072Z,20.10
2018-07-08T04:41:14.235Z,20.10
2018-07-08T04:42:18.367Z,20.10
2018-07-08T04:43:22.502Z,20.10
2018-07-08T04:44:26.556Z,20.10
2018-07-08T04:45:30.776Z,20.20
2018-07-08T04:46:34.931Z,20.20
2018-07-08T04:47:39.148Z,20.20
2018-07-08T04:48:43.280Z,20.20
2018-07-08T04:49:47.449Z,20.20
2018-07-08T04:50:51.624Z,20.20
2018-07-08T04:51:55.959Z,20.30
2018-07-08T04:53:00.069Z,20.30
2018-07-08T04:54:04.138Z,20.30
2018-07-08T04:56:12.185Z,20.30
2018-07-08T04:57:16.331Z,20.30
2018-07-08T04:58:20.477Z,20.40
2018-07-08T04:59:24.604Z,20.40
2018-07-08T05:00:28.668Z,20.40
2018-07-08T05:01:32.844Z,20.40
2018-07-08T05:02:36.938Z,20.40
2018-07-08T05:03:41.111Z,20.50
2018-07-08T05:04:45.209Z,20.50
2018-07-08T05:05:49.401Z,20.50
2018-07-08T05:06:53.742Z,20.50
2018-07-08T05:07:57.898Z,20.50
2018-07-08T05:09:02.002Z,20.50
2018-07-08T05:10:06.290Z,20.50
2018-07-08T05:11:10.419Z,20.60
2018-07-08T05:12:14.627Z,20.60
2018-07-08T05:13:18.864Z,20.60
2018-07-08T05:14:22.964Z,20.60
2018-07-08T05:15:27.157Z,20.60
2018-07-08T05:16:31.277Z,20.60
2018-07-08T05:17:35.419Z,20.60
2018-07-08T05:18:39.521Z,20.70
2018-07-08T05:19:43.707Z,20.70
2018-07-08T05:20:47.910Z,20.70
2018-07-08T05:21:52.059Z,20.70
2018-07-08T05:22:56.151Z,20.80
2018-07-08T05:24:00.270Z,20.70
2018-07-08T05:25:04.566Z,20.80
2018-07-08T05:26:08.692Z,20.80
2018-07-08T05:27:12.725Z,20.80
2018-07-08T05:28:16.853Z,20.80
2018-07-08T05:29:20.954Z,20.80
2018-07-08T05:30:25.006Z,20.90
2018-07-08T05:31:29.160Z,20.80
2018-07-08T05:32:33.234Z,20.90
2018-07-08T05:33:37.379Z,20.90
2018-07-08T05:34:41.568Z,20.90
2018-07-08T05:35:45.769Z,20.90
2018-07-08T05:36:49.775Z,20.90
2018-07-08T05:37:54.033Z,20.90
2018-07-08T05:38:58.199Z,20.90
2018-07-08T05:40:02.387Z,20.90
2018-07-08T05:41:06.612Z,20.90
2018-07-08T05:42:10.703Z,20.90
2018-07-08T05:43:14.797Z,21.00
2018-07-08T05:44:19.029Z,21.00
2018-07-08T05:45:23.139Z,21.00
2018-07-08T05:46:27.189Z,21.00
2018-07-08T05:47:31.477Z,21.00
2018-07-08T05:48:35.640Z,21.00
2018-07-08T05:49:39.835Z,21.00
2018-07-08T05:50:43.983Z,21.10
2018-07-08T05:51:48.105Z,21.10
2018-07-08T05:52:52.415Z,21.10
2018-07-08T05:53:56.517Z,21.10
2018-07-08T05:55:00.830Z,21.10
2018-07-08T05:56:05.011Z,21.10
2018-07-08T05:57:09.099Z,21.10
2018-07-08T05:58:13.236Z,21.10
2018-07-08T05:59:17.424Z,21.20
2018-07-08T06:00:21.511Z,21.20
2018-07-08T06:01:25.686Z,21.20
2018-07-08T06:02:29.797Z,21.20
2018-07-08T06:03:33.923Z,21.20
2018-07-08T06:04:38.147Z,21.20
2018-07-08T06:05:42.256Z,21.20
2018-07-08T06:06:46.396Z,21.30
2018-07-08T06:07:50.598Z,21.30
2018-07-08T06:08:54.669Z,21.30
2018-07-08T06:09:58.808Z,21.30
2018-07-08T06:11:02.926Z,21.30
2018-07-08T06:12:07.395Z,21.30
2018-07-08T06:13:12.249Z,21.40
2018-07-08T06:14:16.416Z,21.40
2018-07-08T06:16:24.207Z,21.40
2018-07-08T06:17:28.318Z,21.50
2018-07-08T06:18:32.447Z,21.50
2018-07-08T06:19:36.655Z,21.50
2018-07-08T06:20:40.793Z,21.50
2018-07-08T06:21:44.951Z,21.60
2018-07-08T06:22:49.055Z,21.60
2018-07-08T06:23:53.152Z,21.60
2018-07-08T06:24:57.344Z,21.60
2018-07-08T06:26:01.481Z,21.70
2018-07-08T06:27:05.515Z,21.70
2018-07-08T06:28:09.658Z,21.70
2018-07-08T06:29:13.796Z,21.70
2018-07-08T06:30:17.921Z,21.80
2018-07-08T06:31:22.033Z,21.80
2018-07-08T06:32:26.144Z,21.80
2018-07-08T06:34:34.503Z,21.80
2018-07-08T06:35:38.825Z,21.90
2018-07-08T06:36:42.945Z,21.90
2018-07-08T06:37:47.013Z,21.90
2018-07-08T06:38:51.287Z,21.90
2018-07-08T06:39:55.487Z,21.90
2018-07-08T06:40:59.667Z,22.00
2018-07-08T06:42:03.865Z,22.00
2018-07-08T06:43:07.985Z,22.00
2018-07-08T06:44:12.089Z,22.00
2018-07-08T06:45:16.249Z,22.10
2018-07-08T06:46:20.360Z,22.10
2018-07-08T06:47:24.457Z,22.10
2018-07-08T06:48:28.649Z,22.10
2018-07-08T06:49:32.764Z,22.10
2018-07-08T06:50:36.881Z,22.20
2018-07-08T06:51:40.970Z,22.20
2018-07-08T06:52:45.094Z,22.20
2018-07-08T06:53:49.195Z,22.20
2018-07-08T06:54:53.365Z,22.20
2018-07-08T06:55:57.479Z,22.30
2018-07-08T06:57:01.642Z,22.30
2018-07-08T06:59:09.526Z,22.30
2018-07-08T07:00:13.627Z,22.30
2018-07-08T07:01:17.734Z,22.40
2018-07-08T07:02:21.917Z,22.40
2018-07-08T07:03:26.065Z,22.40
2018-07-08T07:04:30.194Z,22.40
2018-07-08T07:05:34.333Z,22.40
2018-07-08T07:06:38.492Z,22.50
2018-07-08T07:07:42.615Z,22.50
2018-07-08T07:08:46.910Z,22.50
2018-07-08T07:09:50.936Z,22.50
2018-07-08T07:10:55.275Z,22.50
2018-07-08T07:11:59.370Z,22.60
2018-07-08T07:13:03.530Z,22.60
2018-07-08T07:14:07.713Z,22.60
2018-07-08T07:15:11.913Z,22.70
2018-07-08T07:16:15.982Z,22.70
2018-07-08T07:17:20.153Z,22.70
2018-07-08T07:18:24.245Z,22.80
2018-07-08T07:19:28.453Z,22.80
2018-07-08T07:20:32.628Z,22.90
2018-07-08T07:21:36.910Z,22.90
2018-07-08T07:22:41.020Z,23.00
2018-07-08T07:23:45.070Z,23.00
2018-07-08T07:24:49.316Z,23.00
2018-07-08T07:25:53.501Z,23.10
2018-07-08T07:26:57.624Z,23.10
2018-07-08T07:28:01.712Z,23.20
2018-07-08T07:29:06.402Z,23.20
2018-07-08T07:30:10.598Z,23.20
2018-07-08T07:31:14.656Z,23.30
2018-07-08T07:32:18.809Z,23.30
2018-07-08T07:33:22.939Z,23.30
2018-07-08T07:34:27.113Z,23.40
2018-07-08T07:35:31.212Z,23.40
2018-07-08T07:36:35.311Z,23.40
2018-07-08T07:37:39.475Z,23.50
2018-07-08T07:38:43.672Z,23.50
2018-07-08T07:39:47.853Z,23.50
2018-07-08T07:40:51.967Z,23.60
2018-07-08T07:41:56.052Z,23.60
2018-07-08T07:43:00.193Z,23.60
2018-07-08T07:44:04.358Z,23.70
2018-07-08T07:45:08.523Z,23.70
2018-07-08T07:46:12.635Z,23.70
2018-07-08T07:48:20.445Z,23.80
2018-07-08T07:49:24.545Z,23.80
2018-07-08T07:50:28.719Z,23.80
2018-07-08T07:51:32.922Z,23.80
2018-07-08T07:53:40.734Z,23.80
2018-07-08T07:54:44.907Z,23.80
2018-07-08T07:55:49.131Z,23.90
2018-07-08T07:57:57.017Z,24.00
2018-07-08T07:59:01.209Z,24.00
2018-07-08T08:00:06.398Z,24.00
2018-07-08T08:01:10.540Z,24.10
2018-07-08T08:02:14.656Z,24.10
2018-07-08T08:03:18.784Z,24.10
2018-07-08T08:04:22.971Z,24.20
2018-07-08T08:05:27.099Z,24.20
2018-07-08T08:06:31.222Z,24.30
2018-07-08T08:07:35.360Z,24.30
2018-07-08T08:08:39.756Z,24.30
2018-07-08T08:09:43.914Z,24.40
2018-07-08T08:10:48.187Z,24.40
2018-07-08T08:11:52.273Z,24.50
2018-07-08T08:12:56.372Z,24.50
2018-07-08T08:14:02.396Z,24.50
2018-07-08T08:15:06.514Z,24.60
2018-07-08T08:16:10.624Z,24.60
2018-07-08T08:17:14.770Z,24.60
2018-07-08T08:18:18.879Z,24.60
2018-07-08T08:19:23.029Z,24.70
2018-07-08T08:20:27.102Z,24.70
2018-07-08T08:21:31.231Z,24.80
2018-07-08T08:22:35.353Z,24.80
2018-07-08T08:23:39.529Z,24.80
2018-07-08T08:24:43.637Z,24.80
2018-07-08T08:25:47.730Z,24.90
2018-07-08T08:27:55.920Z,25.00
2018-07-08T08:29:00.177Z,25.00
2018-07-08T08:30:04.379Z,25.00
2018-07-08T08:32:12.189Z,25.10
2018-07-08T08:33:16.319Z,25.10
2018-07-08T08:34:56.556Z,25.20
2018-07-08T08:36:00.690Z,25.20
2018-07-08T08:37:04.778Z,25.20
2018-07-08T08:38:08.990Z,25.30
2018-07-08T08:39:13.102Z,25.30
2018-07-08T08:40:18.076Z,25.30
2018-07-08T08:41:22.222Z,25.30
2018-07-08T08:42:26.379Z,25.40
2018-07-08T08:43:30.609Z,25.40
2018-07-08T08:44:34.809Z,25.50
2018-07-08T08:45:39.251Z,25.50
2018-07-08T08:46:43.343Z,25.50
2018-07-08T08:47:47.511Z,25.50
2018-07-08T08:48:51.617Z,25.50
2018-07-08T08:49:56.032Z,25.60
2018-07-08T08:51:00.210Z,25.60
2018-07-08T08:52:04.447Z,25.60
2018-07-08T08:53:08.642Z,25.60
2018-07-08T08:54:12.692Z,25.60
2018-07-08T08:55:16.805Z,25.70
2018-07-08T08:56:20.977Z,25.70
2018-07-08T08:57:25.192Z,25.80
2018-07-08T08:58:29.288Z,25.80
2018-07-08T08:59:33.597Z,25.80
2018-07-08T09:00:37.651Z,25.80
2018-07-08T09:01:41.800Z,25.90
2018-07-08T09:02:46.034Z,25.90
2018-07-08T09:03:50.235Z,25.90
2018-07-08T09:04:54.365Z,26.00
2018-07-08T09:05:58.575Z,26.00
2018-07-08T09:07:02.672Z,26.10
2018-07-08T09:08:06.777Z,26.10
2018-07-08T09:09:10.912Z,26.10
2018-07-08T09:10:15.022Z,26.20
2018-07-08T09:11:19.165Z,26.20
2018-07-08T09:12:23.288Z,26.30
2018-07-08T09:13:29.141Z,26.30
2018-07-08T09:14:33.255Z,26.40
2018-07-08T09:15:37.361Z,26.50
2018-07-08T09:16:41.751Z,26.50
2018-07-08T09:17:45.912Z,26.60
2018-07-08T09:18:50.096Z,26.70
2018-07-08T09:19:54.226Z,26.70
2018-07-08T09:20:58.306Z,26.80
2018-07-08T09:22:02.613Z,26.90
2018-07-08T09:23:06.770Z,26.90
2018-07-08T09:24:10.908Z,27.00
2018-07-08T09:25:15.439Z,27.10
2018-07-08T09:26:20.012Z,27.10
2018-07-08T09:27:24.176Z,27.20
2018-07-08T09:28:28.299Z,27.30
2018-07-08T09:29:32.521Z,27.30
2018-07-08T09:30:36.626Z,27.40
2018-07-08T09:31:40.849Z,27.50
2018-07-08T09:32:44.931Z,27.50
2018-07-08T09:33:49.020Z,27.60
2018-07-08T09:34:53.159Z,27.60
2018-07-08T09:35:57.285Z,27.70
2018-07-08T09:37:01.501Z,27.80
2018-07-08T09:38:06.039Z,27.80
2018-07-08T09:39:11.876Z,27.90
2018-07-08T09:40:15.774Z,27.90
2018-07-08T09:41:19.884Z,28.00
2018-07-08T09:42:24.068Z,28.10
2018-07-08T09:44:31.917Z,28.20
2018-07-08T09:45:36.042Z,28.30
2018-07-08T09:46:40.894Z,28.40
2018-07-08T09:47:44.999Z,28.50
2018-07-08T09:48:49.106Z,28.50
2018-07-08T09:49:53.296Z,28.60
2018-07-08T09:50:57.424Z,28.60
2018-07-08T09:52:01.583Z,28.70
2018-07-08T09:53:05.948Z,28.80
2018-07-08T09:54:10.100Z,28.80
2018-07-08T09:55:14.207Z,28.90
2018-07-08T09:56:18.383Z,28.90
2018-07-08T09:57:22.520Z,29.00
2018-07-08T09:58:26.684Z,29.00
2018-07-08T09:59:30.781Z,29.10
2018-07-08T10:00:34.917Z,29.20
2018-07-08T10:01:39.878Z,29.30
2018-07-08T10:02:43.993Z,29.30
2018-07-08T10:03:48.115Z,29.40
2018-07-08T10:04:52.291Z,29.40
2018-07-08T10:05:56.638Z,29.50
2018-07-08T10:07:01.825Z,29.50
2018-07-08T10:08:06.005Z,29.50
2018-07-08T10:09:12.497Z,29.60
2018-07-08T10:10:16.661Z,29.60
2018-07-08T10:11:20.852Z,29.60
2018-07-08T10:12:24.941Z,29.60
2018-07-08T10:13:29.380Z,29.60
2018-07-08T10:14:33.591Z,29.60
2018-07-08T10:15:37.693Z,29.60
2018-07-08T10:16:41.835Z,29.60
2018-07-08T10:17:45.966Z,29.70
2018-07-08T10:18:50.078Z,29.70
2018-07-08T10:19:54.432Z,29.70
2018-07-08T10:20:58.396Z,29.80
2018-07-08T10:22:02.506Z,29.90
2018-07-08T10:23:06.608Z,30.00
2018-07-08T10:24:10.955Z,30.00
2018-07-08T10:25:15.143Z,30.10
2018-07-08T10:26:20.017Z,30.10
2018-07-08T10:27:43.195Z,30.20
2018-07-08T10:28:47.362Z,30.30
2018-07-08T10:29:51.464Z,30.40
2018-07-08T10:30:55.869Z,30.50
2018-07-08T10:31:59.979Z,30.50
2018-07-08T10:33:04.194Z,30.70
2018-07-08T10:34:08.336Z,30.70
2018-07-08T10:35:22.649Z,30.80
2018-07-08T10:36:26.879Z,30.90
2018-07-08T10:37:31.008Z,31.00
2018-07-08T10:38:35.111Z,31.20
2018-07-08T10:39:39.198Z,31.30
2018-07-08T10:40:43.285Z,31.40
2018-07-08T10:41:47.396Z,31.50
2018-07-08T10:42:51.641Z,31.60
2018-07-08T10:43:55.803Z,31.70
2018-07-08T10:44:59.920Z,31.80
2018-07-08T10:46:04.931Z,31.80
2018-07-08T10:47:09.130Z,32.00
2018-07-08T10:48:13.378Z,32.00
2018-07-08T10:49:17.450Z,32.10
2018-07-08T10:50:21.624Z,32.20
2018-07-08T10:51:25.710Z,32.30
2018-07-08T10:52:29.829Z,32.30
2018-07-08T10:53:34.056Z,32.40
2018-07-08T10:54:38.098Z,32.50
2018-07-08T10:55:42.239Z,32.60
2018-07-08T10:56:46.357Z,32.70
2018-07-08T10:57:50.439Z,32.80
2018-07-08T10:58:54.727Z,32.90
2018-07-08T10:59:58.909Z,33.00
2018-07-08T11:01:03.209Z,33.10
2018-07-08T11:02:07.317Z,33.20
2018-07-08T11:03:11.490Z,33.30
2018-07-08T11:04:15.665Z,33.30
2018-07-08T11:05:19.825Z,33.30
2018-07-08T11:06:23.976Z,33.30
2018-07-08T11:07:28.221Z,33.30
2018-07-08T11:08:33.289Z,33.30
2018-07-08T11:09:37.389Z,33.30
2018-07-08T11:10:41.550Z,33.30
2018-07-08T11:11:45.699Z,33.40
2018-07-08T11:12:49.855Z,33.40
2018-07-08T11:13:54.055Z,33.40
2018-07-08T11:14:58.255Z,33.40
2018-07-08T11:16:02.410Z,33.40
2018-07-08T11:17:06.642Z,33.50
2018-07-08T11:18:10.889Z,33.50
2018-07-08T11:19:15.025Z,33.50
2018-07-08T11:20:19.795Z,33.60
2018-07-08T11:21:23.898Z,33.60
2018-07-08T11:22:28.349Z,33.70
2018-07-08T11:23:32.545Z,33.80
2018-07-08T11:24:36.626Z,33.80
2018-07-08T11:25:40.763Z,33.80
2018-07-08T11:26:44.907Z,33.90
2018-07-08T11:27:49.019Z,33.90
2018-07-08T11:28:53.179Z,33.90
2018-07-08T11:29:57.282Z,33.90
2018-07-08T11:31:01.375Z,33.90
2018-07-08T11:32:05.479Z,33.90
2018-07-08T11:33:10.100Z,34.00
2018-07-08T11:34:14.270Z,34.00
2018-07-08T11:36:22.065Z,34.10
2018-07-08T11:37:26.232Z,34.10
2018-07-08T11:38:30.343Z,34.10
2018-07-08T11:39:34.611Z,34.10
2018-07-08T11:40:38.720Z,34.20
2018-07-08T11:41:42.798Z,34.20
2018-07-08T11:43:50.643Z,34.30
2018-07-08T11:44:54.704Z,34.30
2018-07-08T11:45:58.846Z,34.30
2018-07-08T11:47:02.984Z,34.30
2018-07-08T11:48:13.800Z,34.30
2018-07-08T11:49:24.567Z,34.20
2018-07-08T11:50:28.678Z,34.10
2018-07-08T11:51:32.795Z,34.10
2018-07-08T11:52:37.013Z,34.00
2018-07-08T11:53:41.060Z,34.00
2018-07-08T11:54:45.369Z,33.90
2018-07-08T11:55:49.471Z,33.90
2018-07-08T11:56:53.851Z,33.80
2018-07-08T11:57:58.022Z,33.80
2018-07-08T11:59:02.121Z,33.80
2018-07-08T12:00:06.507Z,33.80
2018-07-08T12:01:10.619Z,33.80
2018-07-08T12:02:14.796Z,33.80
2018-07-08T12:03:18.943Z,33.70
2018-07-08T12:04:23.101Z,33.80
2018-07-08T12:05:27.256Z,33.90
2018-07-08T12:06:31.486Z,34.00
2018-07-08T12:07:35.620Z,34.00
2018-07-08T12:08:39.737Z,34.10
2018-07-08T12:09:44.030Z,34.10
2018-07-08T12:10:48.193Z,34.10
2018-07-08T12:11:52.315Z,34.10
2018-07-08T12:12:56.461Z,34.10
2018-07-08T12:14:00.571Z,34.10
2018-07-08T12:15:04.748Z,34.10
2018-07-08T12:16:09.026Z,34.20
2018-07-08T12:17:13.137Z,34.20
2018-07-08T12:18:17.324Z,34.30
2018-07-08T12:19:21.395Z,34.40
2018-07-08T12:20:25.509Z,34.50
2018-07-08T12:21:29.598Z,34.60
2018-07-08T12:22:33.764Z,34.70
2018-07-08T12:23:39.962Z,34.80
2018-07-08T12:24:44.135Z,34.90
2018-07-08T12:25:48.327Z,35.00
2018-07-08T12:26:52.405Z,35.10
2018-07-08T12:27:56.588Z,35.20
2018-07-08T12:29:00.735Z,35.30
2018-07-08T12:31:08.697Z,35.50
2018-07-08T12:32:12.861Z,35.50
2018-07-08T12:33:17.007Z,35.50
2018-07-08T12:34:21.157Z,35.60
2018-07-08T12:35:25.348Z,35.60
2018-07-08T12:36:29.495Z,35.60
2018-07-08T12:37:33.567Z,35.60
2018-07-08T12:39:41.844Z,35.60
2018-07-08T12:40:45.948Z,35.60
2018-07-08T12:41:50.046Z,35.60
2018-07-08T12:42:54.150Z,35.60
2018-07-08T12:43:58.241Z,35.60
2018-07-08T12:45:02.359Z,35.60
2018-07-08T12:46:06.523Z,35.60
2018-07-08T12:47:10.763Z,35.50
2018-07-08T12:48:15.098Z,35.50
2018-07-08T12:49:19.202Z,35.50
2018-07-08T12:50:23.416Z,35.50
2018-07-08T12:51:27.588Z,35.40
2018-07-08T12:52:31.707Z,35.40
2018-07-08T12:53:35.804Z,35.40
2018-07-08T12:54:39.907Z,35.30
2018-07-08T12:55:43.996Z,35.30
2018-07-08T12:56:48.204Z,35.30
2018-07-08T12:57:52.339Z,35.30
2018-07-08T12:58:56.868Z,35.30
2018-07-08T13:00:00.956Z,35.30
2018-07-08T13:01:05.085Z,35.40
2018-07-08T13:02:09.212Z,35.50
2018-07-08T13:03:13.280Z,35.60
2018-07-08T13:04:17.410Z,35.60
2018-07-08T13:05:21.486Z,35.70
2018-07-08T13:06:25.636Z,35.70
2018-07-08T13:07:29.749Z,35.80
2018-07-08T13:08:33.859Z,35.90
2018-07-08T13:09:37.964Z,36.00
2018-07-08T13:10:42.052Z,36.10
2018-07-08T13:11:46.203Z,36.20
2018-07-08T13:12:50.320Z,36.30
2018-07-08T13:13:54.408Z,36.30
2018-07-08T13:14:58.466Z,36.50
2018-07-08T13:16:02.618Z,36.50
2018-07-08T13:17:06.728Z,36.60
2018-07-08T13:18:10.933Z,36.70
2018-07-08T13:19:15.049Z,36.80
2018-07-08T13:20:19.147Z,36.90
2018-07-08T13:21:23.330Z,37.00
2018-07-08T13:22:27.435Z,37.00
2018-07-08T13:23:31.624Z,37.10
2018-07-08T13:24:35.821Z,37.10
2018-07-08T13:25:39.981Z,37.10
2018-07-08T13:26:44.118Z,37.10
2018-07-08T13:27:48.214Z,37.10
2018-07-08T13:28:52.439Z,37.10
2018-07-08T13:29:56.535Z,37.00
2018-07-08T13:31:00.661Z,37.00
2018-07-08T13:32:04.757Z,37.00
2018-07-08T13:33:08.850Z,37.00
2018-07-08T13:34:13.022Z,36.90
2018-07-08T13:35:17.181Z,36.90
2018-07-08T13:36:21.348Z,36.80
2018-07-08T13:37:25.515Z,36.80
2018-07-08T13:38:29.597Z,36.80
2018-07-08T13:39:33.763Z,36.80
2018-07-08T13:40:38.144Z,36.80
2018-07-08T13:41:42.303Z,36.80
2018-07-08T13:42:46.408Z,36.80
2018-07-08T13:43:50.836Z,36.70
2018-07-08T13:44:54.985Z,36.80
2018-07-08T13:45:59.113Z,36.80
2018-07-08T13:48:07.769Z,36.80
2018-07-08T13:49:11.968Z,36.80
2018-07-08T13:50:16.124Z,36.80
2018-07-08T13:51:20.253Z,36.80
2018-07-08T13:52:24.444Z,36.80
2018-07-08T13:53:28.642Z,36.80
2018-07-08T13:54:32.849Z,36.80
2018-07-08T13:55:36.985Z,36.80
2018-07-08T13:56:41.081Z,36.80
2018-07-08T13:58:48.837Z,36.80
2018-07-08T13:59:52.971Z,36.80
2018-07-08T14:00:57.137Z,36.80
2018-07-08T14:02:01.212Z,36.80
2018-07-08T14:03:05.431Z,36.80
2018-07-08T14:04:09.522Z,36.80
2018-07-08T14:05:13.703Z,36.70
2018-07-08T14:06:17.824Z,36.70
2018-07-08T14:07:21.961Z,36.70
2018-07-08T14:08:26.043Z,36.60
2018-07-08T14:09:30.440Z,36.60
2018-07-08T14:10:34.578Z,36.50